createdAt,value
2023-02-01T00:01:10.224Z,18.05
2023-02-01T00:03:42.923Z,18.04
2023-02-01T00:06:15.706Z,18.01
2023-02-01T00:08:48.480Z,18.01
2023-02-01T00:11:22.285Z,17.99
2023-02-01T00:13:56.019Z,17.98
2023-02-01T00:16:31.607Z,17.97
2023-02-01T00:19:13.593Z,17.95
2023-02-01T00:21:46.572Z,17.95
2023-02-01T00:24:19.136Z,17.90
2023-02-01T00:26:51.838Z,17.91
2023-02-01T00:29:24.561Z,17.90
2023-02-01T00:31:57.270Z,17.88
2023-02-01T00:34:29.963Z,17.84
2023-02-01T00:37:02.591Z,17.76
2023-02-01T00:39:35.308Z,17.85
2023-02-01T00:42:08.063Z,17.83
2023-02-01T00:44:40.667Z,17.81
2023-02-01T00:47:13.249Z,17.78
2023-02-01T00:49:46.034Z,17.77
2023-02-01T00:52:18.666Z,17.73
2023-02-01T00:54:51.243Z,17.74
2023-02-01T00:57:23.926Z,17.71
2023-02-01T00:59:56.575Z,17.67
2023-02-01T01:02:29.408Z,17.69
2023-02-01T01:05:02.176Z,17.69
2023-02-01T01:07:34.875Z,17.66
2023-02-01T01:10:08.069Z,17.65
2023-02-01T01:12:41.805Z,17.63
2023-02-01T01:15:14.400Z,17.63
2023-02-01T01:17:46.930Z,17.61
2023-02-01T01:20:22.933Z,17.60
2023-02-01T01:22:55.923Z,17.58
2023-02-01T01:25:28.661Z,17.57
2023-02-01T01:28:01.173Z,17.57
2023-02-01T01:30:35.803Z,17.55
2023-02-01T01:33:08.493Z,17.53
2023-02-01T01:35:41.240Z,17.53
2023-02-01T01:38:13.752Z,17.53
2023-02-01T01:40:48.594Z,17.50
2023-02-01T01:43:23.535Z,17.50
2023-02-01T01:45:56.201Z,17.47
2023-02-01T01:48:32.063Z,17.48
2023-02-01T01:51:12.836Z,17.48
2023-02-01T01:53:56.640Z,17.46
2023-02-01T01:56:32.804Z,17.46
2023-02-01T01:59:06.573Z,17.44
2023-02-01T02:01:39.504Z,17.43
2023-02-01T02:04:12.268Z,17.41
2023-02-01T02:07:12.771Z,17.42
2023-02-01T02:09:54.536Z,17.40
2023-02-01T02:12:33.643Z,17.39
2023-02-01T02:15:10.444Z,17.37
2023-02-01T02:18:05.627Z,17.33
2023-02-01T02:21:02.835Z,17.35
2023-02-01T02:24:35.300Z,17.40
2023-02-01T02:27:25.566Z,17.33
2023-02-01T02:30:17.204Z,17.30
2023-02-01T02:33:20.357Z,17.35
2023-02-01T02:36:05.641Z,17.26
2023-02-01T02:39:06.653Z,17.32
2023-02-01T02:42:33.625Z,17.32
2023-02-01T02:45:42.434Z,17.24
2023-02-01T02:48:29.692Z,17.24
2023-02-01T02:51:47.650Z,17.23
2023-02-01T02:54:51.949Z,17.21
2023-02-01T02:57:55.586Z,17.19
2023-02-01T03:00:54.102Z,17.18
2023-02-01T03:03:45.321Z,17.16
2023-02-01T03:06:19.693Z,17.15
2023-02-01T03:08:55.218Z,17.15
2023-02-01T03:11:47.873Z,17.14
2023-02-01T03:14:27.479Z,17.11
2023-02-01T03:17:20.569Z,17.12
2023-02-01T03:19:54.614Z,17.08
2023-02-01T03:22:32.677Z,17.08
2023-02-01T03:25:15.875Z,17.08
2023-02-01T03:28:10.998Z,17.14
2023-02-01T03:30:44.730Z,17.06
2023-02-01T03:33:24.220Z,17.05
2023-02-01T03:36:31.207Z,17.08
2023-02-01T03:39:21.867Z,17.06
2023-02-01T03:42:01.113Z,17.04
2023-02-01T03:44:41.931Z,17.03
2023-02-01T03:47:24.359Z,17.03
2023-02-01T03:50:07.439Z,17.01
2023-02-01T03:52:58.067Z,16.99
2023-02-01T03:55:32.779Z,16.98
2023-02-01T03:58:20.962Z,16.99
2023-02-01T04:00:58.480Z,16.98
2023-02-01T04:03:31.115Z,16.98
2023-02-01T04:06:03.867Z,16.95
2023-02-01T04:08:36.557Z,16.94
2023-02-01T04:11:09.360Z,16.95
2023-02-01T04:13:42.085Z,16.94
2023-02-01T04:16:14.944Z,16.93
2023-02-01T04:18:47.554Z,16.91
2023-02-01T04:21:20.216Z,16.92
2023-02-01T04:23:53.463Z,16.91
2023-02-01T04:26:26.216Z,16.87
2023-02-01T04:28:59.034Z,16.86
2023-02-01T04:31:31.877Z,16.87
2023-02-01T04:34:04.653Z,16.87
2023-02-01T04:36:37.311Z,16.85
2023-02-01T04:39:10.962Z,16.84
2023-02-01T04:41:43.940Z,16.84
2023-02-01T04:44:19.279Z,16.84
2023-02-01T04:46:52.074Z,16.83
2023-02-01T04:49:26.561Z,16.82
2023-02-01T04:51:59.213Z,16.76
2023-02-01T04:54:31.805Z,16.80
2023-02-01T04:57:04.384Z,16.80
2023-02-01T04:59:36.940Z,16.78
2023-02-01T05:02:09.525Z,16.79
2023-02-01T05:04:42.046Z,16.77
2023-02-01T05:07:14.705Z,16.75
2023-02-01T05:09:47.270Z,16.75
2023-02-01T05:12:38.570Z,16.74
2023-02-01T05:15:11.271Z,16.68
2023-02-01T05:17:43.973Z,16.74
2023-02-01T05:20:16.727Z,16.71
2023-02-01T05:22:49.264Z,16.70
2023-02-01T05:25:21.929Z,16.71
2023-02-01T05:27:55.330Z,16.67
2023-02-01T05:30:27.988Z,16.70
2023-02-01T05:33:00.573Z,16.66
2023-02-01T05:35:33.127Z,16.63
2023-02-01T05:38:05.796Z,16.62
2023-02-01T05:40:38.417Z,16.64
2023-02-01T05:43:10.964Z,16.65
2023-02-01T05:45:43.602Z,16.64
2023-02-01T05:48:16.231Z,16.62
2023-02-01T05:50:48.739Z,16.62
2023-02-01T05:53:21.527Z,16.63
2023-02-01T05:55:54.233Z,16.61
2023-02-01T05:58:27.310Z,16.59
2023-02-01T06:01:01.650Z,16.62
2023-02-01T06:03:34.425Z,16.75
2023-02-01T06:06:07.149Z,16.63
2023-02-01T06:08:41.342Z,16.54
2023-02-01T06:11:30.682Z,16.57
2023-02-01T06:14:04.761Z,16.58
2023-02-01T06:16:37.424Z,16.52
2023-02-01T06:19:10.087Z,16.58
2023-02-01T06:21:42.751Z,16.53
2023-02-01T06:24:15.952Z,16.59
2023-02-01T06:26:48.685Z,16.60
2023-02-01T06:29:21.277Z,16.62
2023-02-01T06:31:53.850Z,16.67
2023-02-01T06:34:26.362Z,16.71
2023-02-01T06:36:59.076Z,16.70
2023-02-01T06:39:31.798Z,16.78
2023-02-01T06:42:04.775Z,16.84
2023-02-01T06:44:37.442Z,16.85
2023-02-01T06:47:10.249Z,16.95
2023-02-01T06:49:42.802Z,17.01
2023-02-01T06:52:15.361Z,17.08
2023-02-01T06:54:48.045Z,17.15
2023-02-01T06:57:20.731Z,17.20
2023-02-01T06:59:53.275Z,17.27
2023-02-01T07:02:25.960Z,17.31
2023-02-01T07:04:58.754Z,17.43
2023-02-01T07:07:31.232Z,17.48
2023-02-01T07:10:03.967Z,17.57
2023-02-01T07:12:39.963Z,17.64
2023-02-01T07:15:12.647Z,17.67
2023-02-01T07:17:45.719Z,17.77
2023-02-01T07:20:18.864Z,17.83
2023-02-01T07:22:57.829Z,17.88
2023-02-01T07:25:30.368Z,17.94
2023-02-01T07:28:03.362Z,17.96
2023-02-01T07:30:35.978Z,18.01
2023-02-01T07:33:08.779Z,18.04
2023-02-01T07:35:41.415Z,18.06
2023-02-01T07:38:14.270Z,18.09
2023-02-01T07:40:46.762Z,18.10
2023-02-01T07:43:19.329Z,18.12
2023-02-01T07:45:53.366Z,18.12
2023-02-01T07:48:27.629Z,18.14
2023-02-01T07:51:03.905Z,18.17
2023-02-01T07:53:37.995Z,18.17
2023-02-01T07:56:23.506Z,18.19
2023-02-01T07:58:57.312Z,18.16
2023-02-01T08:01:30.413Z,18.18
2023-02-01T08:04:05.195Z,18.18
2023-02-01T08:06:37.787Z,18.18
2023-02-01T08:09:11.983Z,18.17
2023-02-01T08:14:54.891Z,18.20
2023-02-01T08:20:16.096Z,18.22
2023-02-01T08:22:48.828Z,18.23
2023-02-01T08:25:22.217Z,18.20
2023-02-01T08:27:57.286Z,18.25
2023-02-01T08:30:29.924Z,18.19
2023-02-01T08:33:02.493Z,18.25
2023-02-01T08:35:45.238Z,18.21
2023-02-01T08:38:17.738Z,18.24
2023-02-01T08:40:50.288Z,18.25
2023-02-01T08:43:22.922Z,18.23
2023-02-01T08:46:02.096Z,18.25
2023-02-01T08:48:35.705Z,18.25
2023-02-01T08:51:23.730Z,18.27
2023-02-01T08:53:56.238Z,18.24
2023-02-01T08:56:28.766Z,18.24
2023-02-01T08:59:01.442Z,18.24
2023-02-01T09:01:34.189Z,18.24
2023-02-01T09:04:06.956Z,18.26
2023-02-01T09:06:42.502Z,18.26
2023-02-01T09:09:15.165Z,18.24
2023-02-01T09:11:47.837Z,18.23
2023-02-01T09:14:20.564Z,18.25
2023-02-01T09:16:53.127Z,18.27
2023-02-01T09:19:27.110Z,18.27
2023-02-01T09:22:00.078Z,18.42
2023-02-01T09:24:32.846Z,18.30
2023-02-01T09:27:06.358Z,18.30
2023-02-01T09:29:38.925Z,18.32
2023-02-01T09:32:11.758Z,18.36
2023-02-01T09:34:44.461Z,18.32
2023-02-01T09:37:17.798Z,18.38
2023-02-01T09:39:50.744Z,18.37
2023-02-01T09:42:44.880Z,18.43
2023-02-01T09:45:44.741Z,18.45
2023-02-01T09:48:30.200Z,18.40
2023-02-01T09:51:10.848Z,18.43
2023-02-01T09:53:53.437Z,18.43
2023-02-01T09:56:37.583Z,18.44
2023-02-01T09:59:47.862Z,18.49
2023-02-01T10:02:29.079Z,18.45
2023-02-01T10:05:03.126Z,18.46
2023-02-01T10:08:05.646Z,18.48
2023-02-01T10:10:46.975Z,18.48
2023-02-01T10:13:58.272Z,18.49
2023-02-01T10:16:42.669Z,18.53
2023-02-01T10:19:36.705Z,18.53
2023-02-01T10:22:12.068Z,18.57
2023-02-01T10:25:27.078Z,18.64
2023-02-01T10:28:05.253Z,18.63
2023-02-01T10:30:47.924Z,18.65
2023-02-01T10:34:01.854Z,18.70
2023-02-01T10:36:47.579Z,18.67
2023-02-01T10:39:20.357Z,18.68
2023-02-01T10:41:55.781Z,18.63
2023-02-01T10:44:43.996Z,18.66
2023-02-01T10:47:16.848Z,18.70
2023-02-01T10:50:23.255Z,18.74
2023-02-01T10:53:07.673Z,18.71
2023-02-01T10:55:45.607Z,18.71
2023-02-01T10:58:29.440Z,18.71
2023-02-01T11:01:09.655Z,18.73
2023-02-01T11:03:54.569Z,18.67
2023-02-01T11:06:37.862Z,18.74
2023-02-01T11:09:25.709Z,18.73
2023-02-01T11:12:00.998Z,18.71
2023-02-01T11:14:41.377Z,18.71
2023-02-01T11:17:18.848Z,18.72
2023-02-01T11:20:01.957Z,18.73
2023-02-01T11:22:34.635Z,18.71
2023-02-01T11:25:11.770Z,18.73
2023-02-01T11:27:54.413Z,18.71
2023-02-01T11:30:44.163Z,18.74
2023-02-01T11:33:26.002Z,18.73
2023-02-01T11:35:59.738Z,18.74
2023-02-01T11:38:35.177Z,18.73
2023-02-01T11:41:25.671Z,18.79
2023-02-01T11:44:16.931Z,18.76
2023-02-01T11:46:49.729Z,18.76
2023-02-01T11:49:26.082Z,18.75
2023-02-01T11:52:46.881Z,18.79
2023-02-01T11:56:12.657Z,18.80
2023-02-01T11:58:53.765Z,18.88
2023-02-01T12:02:11.405Z,18.82
2023-02-01T12:05:06.632Z,18.79
2023-02-01T12:08:15.990Z,18.80
2023-02-01T12:11:29.086Z,18.74
2023-02-01T12:14:41.979Z,18.77
2023-02-01T12:17:49.109Z,18.74
2023-02-01T12:20:27.733Z,18.73
2023-02-01T12:23:55.041Z,18.80
2023-02-01T12:26:40.843Z,18.72
2023-02-01T12:29:42.653Z,18.75
2023-02-01T12:32:39.833Z,18.78
2023-02-01T12:35:58.640Z,18.78
2023-02-01T12:38:34.092Z,18.75
2023-02-01T12:41:31.648Z,18.75
2023-02-01T12:44:43.881Z,18.79
2023-02-01T12:47:53.803Z,18.77
2023-02-01T12:50:54.456Z,18.76
2023-02-01T12:54:02.294Z,18.81
2023-02-01T12:56:56.477Z,18.79
2023-02-01T12:59:57.499Z,18.84
2023-02-01T13:02:43.589Z,18.83
2023-02-01T13:05:23.213Z,18.85
2023-02-01T13:08:24.199Z,18.88
2023-02-01T13:11:32.450Z,18.93
2023-02-01T13:14:48.641Z,18.93
2023-02-01T13:17:28.767Z,18.88
2023-02-01T13:20:34.230Z,18.90
2023-02-01T13:23:30.581Z,18.89
2023-02-01T13:26:03.477Z,18.88
2023-02-01T13:28:57.924Z,18.87
2023-02-01T13:32:18.135Z,18.96
2023-02-01T13:35:14.957Z,18.96
2023-02-01T13:38:36.472Z,18.99
2023-02-01T13:41:38.102Z,19.04
2023-02-01T13:44:26.863Z,19.02
2023-02-01T13:47:03.854Z,18.99
2023-02-01T13:49:42.164Z,19.04
2023-02-01T13:52:45.302Z,19.10
2023-02-01T13:55:21.290Z,19.05
2023-02-01T13:58:03.742Z,19.06
2023-02-01T14:00:43.856Z,19.05
2023-02-01T14:03:44.947Z,19.05
2023-02-01T14:06:29.253Z,19.09
2023-02-01T14:09:13.183Z,19.10
2023-02-01T14:11:52.591Z,19.06
2023-02-01T14:14:25.273Z,19.06
2023-02-01T14:16:57.861Z,19.07
2023-02-01T14:19:35.479Z,19.08
2023-02-01T14:22:36.493Z,19.13
2023-02-01T14:25:19.157Z,19.09
2023-02-01T14:27:54.688Z,19.05
2023-02-01T14:30:27.415Z,19.08
2023-02-01T14:32:59.994Z,19.09
2023-02-01T14:35:33.540Z,19.03
2023-02-01T14:38:15.745Z,19.08
2023-02-01T14:40:48.714Z,19.03
2023-02-01T14:43:51.562Z,19.12
2023-02-01T14:47:06.751Z,19.14
2023-02-01T14:50:13.359Z,19.12
2023-02-01T14:53:14.273Z,19.11
2023-02-01T14:55:49.245Z,19.11
2023-02-01T14:58:59.346Z,19.13
2023-02-01T15:01:36.031Z,19.09
2023-02-01T15:04:22.830Z,19.07
2023-02-01T15:06:59.496Z,19.09
2023-02-01T15:09:37.787Z,19.08
2023-02-01T15:12:13.262Z,19.08
2023-02-01T15:15:10.042Z,19.08
2023-02-01T15:17:43.373Z,19.09
2023-02-01T15:20:22.068Z,19.09
2023-02-01T15:23:18.236Z,19.12
2023-02-01T15:25:52.843Z,19.07
2023-02-01T15:28:27.699Z,19.06
2023-02-01T15:31:05.062Z,19.07
2023-02-01T15:33:37.783Z,19.07
2023-02-01T15:36:19.335Z,19.05
2023-02-01T15:39:24.478Z,19.13
2023-02-01T15:42:02.989Z,19.21
2023-02-01T15:44:43.565Z,19.08
2023-02-01T15:47:24.398Z,19.06
2023-02-01T15:50:00.717Z,19.04
2023-02-01T15:52:42.474Z,19.03
2023-02-01T15:55:43.639Z,19.07
2023-02-01T15:58:23.299Z,19.03
2023-02-01T16:01:05.575Z,18.99
2023-02-01T16:03:42.842Z,19.00
2023-02-01T16:06:21.430Z,19.03
2023-02-01T16:09:11.752Z,19.02
2023-02-01T16:12:01.894Z,19.02
2023-02-01T16:14:34.578Z,19.00
2023-02-01T16:17:08.603Z,18.98
2023-02-01T16:19:41.122Z,19.00
2023-02-01T16:22:13.797Z,18.99
2023-02-01T16:24:46.684Z,18.94
2023-02-01T16:27:19.430Z,18.98
2023-02-01T16:29:52.030Z,18.96
2023-02-01T16:32:24.878Z,18.97
2023-02-01T16:34:58.595Z,18.94
2023-02-01T16:37:33.336Z,18.95
2023-02-01T16:40:06.780Z,18.93
2023-02-01T16:42:39.291Z,18.92
2023-02-01T16:45:12.069Z,18.90
2023-02-01T16:47:52.431Z,18.93
2023-02-01T16:50:26.887Z,18.92
2023-02-01T16:52:59.448Z,18.92
2023-02-01T16:55:32.146Z,18.90
2023-02-01T16:58:04.703Z,18.90
2023-02-01T17:00:40.299Z,18.89
2023-02-01T17:03:20.133Z,18.87
2023-02-01T17:05:57.889Z,18.87
2023-02-01T17:08:39.781Z,18.87
2023-02-01T17:11:14.468Z,18.87
2023-02-01T17:13:47.842Z,18.82
2023-02-01T17:16:30.091Z,18.85
2023-02-01T17:19:15.030Z,18.84
2023-02-01T17:21:52.429Z,18.80
2023-02-01T17:24:42.458Z,18.79
2023-02-01T17:27:19.275Z,18.73
2023-02-01T17:29:57.064Z,18.75
2023-02-01T17:32:29.797Z,18.69
2023-02-01T17:35:02.467Z,18.71
2023-02-01T17:37:36.507Z,18.70
2023-02-01T17:40:10.627Z,18.69
2023-02-01T17:42:43.358Z,18.82
2023-02-01T17:45:52.747Z,18.72
2023-02-01T17:48:27.827Z,18.65
2023-02-01T17:51:01.758Z,18.62
2023-02-01T17:53:35.877Z,18.62
2023-02-01T17:56:14.798Z,18.73
2023-02-01T17:58:48.211Z,18.59
2023-02-01T18:01:24.851Z,18.57
2023-02-01T18:03:57.385Z,18.54
2023-02-01T18:06:35.254Z,18.50
2023-02-01T18:09:09.251Z,18.49
2023-02-01T18:11:42.709Z,18.47
2023-02-01T18:14:15.279Z,18.46
2023-02-01T18:16:47.992Z,18.43
2023-02-01T18:19:20.722Z,18.42
2023-02-01T18:21:54.122Z,18.39
2023-02-01T18:24:28.057Z,18.36
2023-02-01T18:27:00.891Z,18.36
2023-02-01T18:29:33.525Z,18.34
2023-02-01T18:32:06.290Z,18.31
2023-02-01T18:34:39.058Z,18.30
2023-02-01T18:37:11.622Z,18.29
2023-02-01T18:39:44.310Z,18.23
2023-02-01T18:42:16.892Z,18.27
2023-02-01T18:44:49.481Z,18.25
2023-02-01T18:47:21.978Z,18.18
2023-02-01T18:49:54.523Z,18.22
2023-02-01T18:52:27.256Z,18.21
2023-02-01T18:55:00.495Z,18.20
2023-02-01T18:57:33.428Z,18.19
2023-02-01T19:00:10.240Z,18.15
2023-02-01T19:02:42.903Z,18.17
2023-02-01T19:05:16.436Z,18.14
2023-02-01T19:07:48.929Z,18.15
2023-02-01T19:10:23.738Z,18.14
2023-02-01T19:12:57.403Z,18.12
2023-02-01T19:15:30.145Z,18.10
2023-02-01T19:18:02.827Z,18.07
2023-02-01T19:20:45.636Z,18.08
2023-02-01T19:23:18.716Z,18.11
2023-02-01T19:25:51.405Z,18.12
2023-02-01T19:28:24.126Z,18.14
2023-02-01T19:31:05.218Z,18.17
2023-02-01T19:33:37.898Z,18.18
2023-02-01T19:36:11.136Z,18.22
2023-02-01T19:38:43.871Z,18.25
2023-02-01T19:41:16.494Z,18.27
2023-02-01T19:43:49.009Z,18.31
2023-02-01T19:46:21.683Z,18.35
2023-02-01T19:48:54.394Z,18.39
2023-02-01T19:51:26.932Z,18.39
2023-02-01T19:53:59.616Z,18.43
2023-02-01T19:56:32.288Z,18.47
2023-02-01T19:59:04.967Z,18.47
2023-02-01T20:01:38.139Z,18.56
2023-02-01T20:04:11.783Z,18.59
2023-02-01T20:06:50.001Z,18.61
2023-02-01T20:09:28.984Z,18.68
2023-02-01T20:12:02.126Z,18.72
2023-02-01T20:14:34.769Z,18.77
2023-02-01T20:17:13.643Z,18.75
2023-02-01T20:19:46.206Z,18.80
2023-02-01T20:22:19.333Z,18.84
2023-02-01T20:24:52.793Z,18.86
2023-02-01T20:27:26.432Z,18.85
2023-02-01T20:29:59.182Z,18.89
2023-02-01T20:32:31.698Z,18.89
2023-02-01T20:35:04.395Z,18.89
2023-02-01T20:37:37.717Z,18.91
2023-02-01T20:40:12.281Z,18.92
2023-02-01T20:42:44.853Z,18.91
2023-02-01T20:45:17.769Z,18.91
2023-02-01T20:47:52.488Z,18.87
2023-02-01T20:50:25.202Z,18.92
2023-02-01T20:52:57.812Z,18.91
2023-02-01T20:55:31.418Z,18.90
2023-02-01T20:58:04.079Z,18.90
2023-02-01T21:00:36.667Z,18.84
2023-02-01T21:03:09.239Z,18.87
2023-02-01T21:05:49.109Z,18.86
2023-02-01T21:08:22.021Z,18.82
2023-02-01T21:11:03.531Z,18.85
2023-02-01T21:13:42.969Z,18.81
2023-02-01T21:16:17.964Z,18.82
2023-02-01T21:18:52.403Z,18.81
2023-02-01T21:21:24.914Z,18.79
2023-02-01T21:23:59.263Z,18.77
2023-02-01T21:26:41.058Z,18.74
2023-02-01T21:29:15.566Z,18.72
2023-02-01T21:31:48.214Z,18.72
2023-02-01T21:34:20.876Z,18.68
2023-02-01T21:36:55.985Z,18.64
2023-02-01T21:39:29.195Z,18.67
2023-02-01T21:42:14.066Z,18.63
2023-02-01T21:44:48.601Z,18.64
2023-02-01T21:47:26.166Z,18.63
2023-02-01T21:49:59.585Z,18.60
2023-02-01T21:52:33.073Z,18.61
2023-02-01T21:55:07.399Z,18.54
2023-02-01T21:57:40.774Z,18.56
2023-02-01T22:00:14.252Z,18.53
2023-02-01T22:02:46.812Z,18.56
2023-02-01T22:05:19.514Z,18.51
2023-02-01T22:07:52.285Z,18.50
2023-02-01T22:10:25.025Z,18.44
2023-02-01T22:12:57.655Z,18.47
2023-02-01T22:15:30.411Z,18.45
2023-02-01T22:18:03.391Z,18.43
2023-02-01T22:20:36.450Z,18.41
2023-02-01T22:23:08.955Z,18.41
2023-02-01T22:25:41.487Z,18.38
2023-02-01T22:28:29.494Z,18.38
2023-02-01T22:31:09.172Z,18.37
2023-02-01T22:33:41.774Z,18.32
2023-02-01T22:36:16.794Z,18.32
2023-02-01T22:38:49.583Z,18.31
2023-02-01T22:41:22.295Z,18.31
2023-02-01T22:43:54.856Z,18.29
2023-02-01T22:46:31.209Z,18.29
2023-02-01T22:49:04.599Z,18.27
2023-02-01T22:51:37.498Z,18.26
2023-02-01T22:54:21.135Z,18.25
2023-02-01T22:56:53.749Z,18.20
2023-02-01T22:59:26.684Z,18.22
2023-02-01T23:01:59.715Z,18.21
2023-02-01T23:04:32.385Z,18.18
2023-02-01T23:07:04.918Z,18.18
2023-02-01T23:09:37.486Z,18.15
2023-02-01T23:12:10.022Z,18.15
2023-02-01T23:15:02.668Z,18.10
2023-02-01T23:17:37.092Z,18.12
2023-02-01T23:20:15.965Z,18.11
2023-02-01T23:22:49.918Z,18.10
2023-02-01T23:25:22.942Z,18.08
2023-02-01T23:27:55.707Z,18.09
2023-02-01T23:30:28.795Z,18.07
2023-02-01T23:33:01.367Z,18.02
2023-02-01T23:35:34.166Z,18.05
2023-02-01T23:38:06.820Z,18.04
2023-02-01T23:40:39.383Z,18.03
2023-02-01T23:43:30.423Z,18.01
2023-02-01T23:46:03.616Z,18.01
2023-02-01T23:48:36.961Z,17.99
2023-02-01T23:51:09.869Z,17.99
2023-02-01T23:53:44.732Z,17.97
2023-02-01T23:56:25.208Z,17.95
2023-02-01T23:58:57.956Z,17.94
